sensor_id;sensor_type;location;lat;lon;timestamp;P1;durP1;ratioP1;P2;durP2;ratioP2
13114;SDS011;6623;52.120;8.660;2023-10-09T00:01:41;1.60;;;1.03;;
13114;SDS011;6623;52.120;8.660;2023-10-09T00:04:11;1.80;;;0.97;;
13114;SDS011;6623;52.120;8.660;2023-10-09T00:06:39;1.20;;;0.90;;
13114;SDS011;6623;52.120;8.660;2023-10-09T00:09:07;1.30;;;0.80;;
13114;SDS011;6623;52.120;8.660;2023-10-09T00:11:47;1.13;;;0.70;;
13114;SDS011;6623;52.120;8.660;2023-10-09T00:14:13;1.77;;;1.10;;
13114;SDS011;6623;52.120;8.660;2023-10-09T00:16:43;1.10;;;0.80;;
13114;SDS011;6623;52.120;8.660;2023-10-09T00:19:13;0.97;;;0.87;;
13114;SDS011;6623;52.120;8.660;2023-10-09T00:21:46;1.30;;;1.00;;
13114;SDS011;6623;52.120;8.660;2023-10-09T00:24:12;1.90;;;0.90;;
13114;SDS011;6623;52.120;8.660;2023-10-09T00:26:44;1.87;;;0.90;;
13114;SDS011;6623;52.120;8.660;2023-10-09T00:29:11;1.67;;;0.90;;
13114;SDS011;6623;52.120;8.660;2023-10-09T00:31:41;1.10;;;1.00;;
13114;SDS011;6623;52.120;8.660;2023-10-09T00:34:15;1.70;;;1.20;;
13114;SDS011;6623;52.120;8.660;2023-10-09T00:36:47;1.47;;;0.80;;
13114;SDS011;6623;52.120;8.660;2023-10-09T00:39:16;1.33;;;0.90;;
13114;SDS011;6623;52.120;8.660;2023-10-09T00:41:47;1.00;;;0.90;;
13114;SDS011;6623;52.120;8.660;2023-10-09T00:44:13;1.80;;;0.90;;
13114;SDS011;6623;52.120;8.660;2023-10-09T00:46:39;1.03;;;0.80;;
13114;SDS011;6623;52.120;8.660;2023-10-09T00:49:08;1.80;;;1.13;;
13114;SDS011;6623;52.120;8.660;2023-10-09T00:51:35;0.90;;;0.80;;
13114;SDS011;6623;52.120;8.660;2023-10-09T00:54:21;0.93;;;0.83;;
13114;SDS011;6623;52.120;8.660;2023-10-09T00:56:51;0.90;;;0.80;;
13114;SDS011;6623;52.120;8.660;2023-10-09T00:59:23;1.40;;;0.77;;
13114;SDS011;6623;52.120;8.660;2023-10-09T01:01:50;1.30;;;0.90;;
13114;SDS011;6623;52.120;8.660;2023-10-09T01:04:29;0.90;;;0.70;;
13114;SDS011;6623;52.120;8.660;2023-10-09T01:07:02;1.07;;;0.90;;
13114;SDS011;6623;52.120;8.660;2023-10-09T01:09:35;1.60;;;1.00;;
13114;SDS011;6623;52.120;8.660;2023-10-09T01:12:03;1.60;;;0.90;;
13114;SDS011;6623;52.120;8.660;2023-10-09T01:14:29;1.20;;;1.00;;
13114;SDS011;6623;52.120;8.660;2023-10-09T01:16:56;1.97;;;1.17;;
13114;SDS011;6623;52.120;8.660;2023-10-09T01:19:22;1.20;;;0.80;;
13114;SDS011;6623;52.120;8.660;2023-10-09T01:21:53;1.20;;;0.87;;
13114;SDS011;6623;52.120;8.660;2023-10-09T01:24:19;1.00;;;0.80;;
13114;SDS011;6623;52.120;8.660;2023-10-09T01:26:45;1.17;;;0.87;;
13114;SDS011;6623;52.120;8.660;2023-10-09T01:29:13;1.50;;;0.80;;
13114;SDS011;6623;52.120;8.660;2023-10-09T01:34:28;1.07;;;0.70;;
13114;SDS011;6623;52.120;8.660;2023-10-09T01:37:04;1.23;;;0.90;;
13114;SDS011;6623;52.120;8.660;2023-10-09T01:39:36;1.33;;;0.90;;
13114;SDS011;6623;52.120;8.660;2023-10-09T01:42:07;1.00;;;0.90;;
13114;SDS011;6623;52.120;8.660;2023-10-09T01:44:33;1.40;;;0.90;;
13114;SDS011;6623;52.120;8.660;2023-10-09T01:47:08;0.87;;;0.80;;
13114;SDS011;6623;52.120;8.660;2023-10-09T01:49:39;1.00;;;0.90;;
13114;SDS011;6623;52.120;8.660;2023-10-09T01:52:14;1.50;;;1.00;;
13114;SDS011;6623;52.120;8.660;2023-10-09T01:54:41;1.10;;;0.73;;
13114;SDS011;6623;52.120;8.660;2023-10-09T01:57:14;1.10;;;0.93;;
13114;SDS011;6623;52.120;8.660;2023-10-09T01:59:46;1.27;;;0.93;;
13114;SDS011;6623;52.120;8.660;2023-10-09T02:02:14;1.10;;;0.87;;
13114;SDS011;6623;52.120;8.660;2023-10-09T02:05:02;0.90;;;0.80;;
13114;SDS011;6623;52.120;8.660;2023-10-09T02:07:37;1.00;;;0.90;;
13114;SDS011;6623;52.120;8.660;2023-10-09T02:10:06;1.10;;;0.80;;
13114;SDS011;6623;52.120;8.660;2023-10-09T02:12:46;1.60;;;1.00;;
13114;SDS011;6623;52.120;8.660;2023-10-09T02:15:15;1.20;;;0.80;;
13114;SDS011;6623;52.120;8.660;2023-10-09T02:17:41;1.10;;;1.00;;
13114;SDS011;6623;52.120;8.660;2023-10-09T02:20:25;1.30;;;1.00;;
13114;SDS011;6623;52.120;8.660;2023-10-09T02:22:55;0.80;;;0.80;;
13114;SDS011;6623;52.120;8.660;2023-10-09T02:25:23;1.10;;;1.00;;
13114;SDS011;6623;52.120;8.660;2023-10-09T02:27:54;1.13;;;0.97;;
13114;SDS011;6623;52.120;8.660;2023-10-09T02:30:20;1.27;;;1.00;;
13114;SDS011;6623;52.120;8.660;2023-10-09T02:32:54;1.00;;;0.90;;
13114;SDS011;6623;52.120;8.660;2023-10-09T02:35:31;1.97;;;1.10;;
13114;SDS011;6623;52.120;8.660;2023-10-09T02:38:04;1.33;;;1.03;;
13114;SDS011;6623;52.120;8.660;2023-10-09T02:40:35;1.20;;;1.00;;
13114;SDS011;6623;52.120;8.660;2023-10-09T02:43:27;1.47;;;0.90;;
13114;SDS011;6623;52.120;8.660;2023-10-09T02:45:53;1.37;;;0.97;;
13114;SDS011;6623;52.120;8.660;2023-10-09T02:48:19;1.00;;;0.90;;
13114;SDS011;6623;52.120;8.660;2023-10-09T02:50:58;2.60;;;1.00;;
13114;SDS011;6623;52.120;8.660;2023-10-09T02:53:27;1.13;;;0.83;;
13114;SDS011;6623;52.120;8.660;2023-10-09T02:55:58;1.17;;;0.80;;
13114;SDS011;6623;52.120;8.660;2023-10-09T02:58:37;1.07;;;0.97;;
13114;SDS011;6623;52.120;8.660;2023-10-09T03:01:09;1.33;;;1.10;;
13114;SDS011;6623;52.120;8.660;2023-10-09T03:03:38;0.97;;;0.87;;
13114;SDS011;6623;52.120;8.660;2023-10-09T03:06:06;1.17;;;1.00;;
13114;SDS011;6623;52.120;8.660;2023-10-09T03:08:37;1.57;;;0.80;;
13114;SDS011;6623;52.120;8.660;2023-10-09T03:11:02;1.20;;;1.10;;
13114;SDS011;6623;52.120;8.660;2023-10-09T03:13:31;1.33;;;1.10;;
13114;SDS011;6623;52.120;8.660;2023-10-09T03:15:58;1.53;;;1.00;;
13114;SDS011;6623;52.120;8.660;2023-10-09T03:18:24;1.20;;;1.00;;
13114;SDS011;6623;52.120;8.660;2023-10-09T03:20:49;1.23;;;1.03;;
13114;SDS011;6623;52.120;8.660;2023-10-09T03:23:15;1.33;;;1.00;;
13114;SDS011;6623;52.120;8.660;2023-10-09T03:25:41;1.23;;;0.90;;
13114;SDS011;6623;52.120;8.660;2023-10-09T03:28:10;1.00;;;0.90;;
13114;SDS011;6623;52.120;8.660;2023-10-09T03:30:36;1.10;;;0.90;;
13114;SDS011;6623;52.120;8.660;2023-10-09T03:33:05;1.20;;;1.10;;
13114;SDS011;6623;52.120;8.660;2023-10-09T03:35:31;1.30;;;1.00;;
13114;SDS011;6623;52.120;8.660;2023-10-09T03:37:59;0.90;;;0.90;;
13114;SDS011;6623;52.120;8.660;2023-10-09T03:40:27;1.87;;;1.23;;
13114;SDS011;6623;52.120;8.660;2023-10-09T03:42:52;1.50;;;1.00;;
13114;SDS011;6623;52.120;8.660;2023-10-09T03:45:21;1.37;;;1.00;;
13114;SDS011;6623;52.120;8.660;2023-10-09T03:47:53;1.43;;;1.10;;
13114;SDS011;6623;52.120;8.660;2023-10-09T03:50:39;1.13;;;0.90;;
13114;SDS011;6623;52.120;8.660;2023-10-09T03:53:08;1.13;;;0.90;;
13114;SDS011;6623;52.120;8.660;2023-10-09T03:55:36;1.93;;;1.20;;
13114;SDS011;6623;52.120;8.660;2023-10-09T03:58:05;1.17;;;1.00;;
13114;SDS011;6623;52.120;8.660;2023-10-09T04:00:31;1.20;;;1.00;;
13114;SDS011;6623;52.120;8.660;2023-10-09T04:03:06;1.17;;;0.93;;
13114;SDS011;6623;52.120;8.660;2023-10-09T04:05:31;1.27;;;1.07;;
13114;SDS011;6623;52.120;8.660;2023-10-09T04:07:57;1.20;;;1.10;;
13114;SDS011;6623;52.120;8.660;2023-10-09T04:10:27;1.20;;;0.93;;
13114;SDS011;6623;52.120;8.660;2023-10-09T04:13:09;1.33;;;1.00;;
13114;SDS011;6623;52.120;8.660;2023-10-09T04:15:37;1.60;;;1.30;;
13114;SDS011;6623;52.120;8.660;2023-10-09T04:18:03;1.20;;;1.10;;
13114;SDS011;6623;52.120;8.660;2023-10-09T04:20:30;1.20;;;1.00;;
13114;SDS011;6623;52.120;8.660;2023-10-09T04:22:59;1.20;;;1.10;;
13114;SDS011;6623;52.120;8.660;2023-10-09T04:25:31;1.20;;;1.00;;
13114;SDS011;6623;52.120;8.660;2023-10-09T04:28:07;1.43;;;1.00;;
13114;SDS011;6623;52.120;8.660;2023-10-09T04:30:47;1.73;;;1.20;;
13114;SDS011;6623;52.120;8.660;2023-10-09T04:33:18;1.23;;;1.13;;
13114;SDS011;6623;52.120;8.660;2023-10-09T04:36:03;1.73;;;1.20;;
13114;SDS011;6623;52.120;8.660;2023-10-09T04:38:46;1.30;;;1.20;;
13114;SDS011;6623;52.120;8.660;2023-10-09T04:41:31;1.30;;;1.17;;
13114;SDS011;6623;52.120;8.660;2023-10-09T04:44:16;1.30;;;1.20;;
13114;SDS011;6623;52.120;8.660;2023-10-09T04:46:42;1.40;;;1.00;;
13114;SDS011;6623;52.120;8.660;2023-10-09T04:49:09;1.30;;;1.00;;
13114;SDS011;6623;52.120;8.660;2023-10-09T04:51:53;1.53;;;1.20;;
13114;SDS011;6623;52.120;8.660;2023-10-09T04:54:43;1.70;;;1.20;;
13114;SDS011;6623;52.120;8.660;2023-10-09T04:57:27;1.50;;;1.10;;
13114;SDS011;6623;52.120;8.660;2023-10-09T04:59:54;1.17;;;1.00;;
13114;SDS011;6623;52.120;8.660;2023-10-09T05:02:23;1.33;;;1.20;;
13114;SDS011;6623;52.120;8.660;2023-10-09T05:04:49;1.57;;;1.10;;
13114;SDS011;6623;52.120;8.660;2023-10-09T05:07:35;1.63;;;1.10;;
13114;SDS011;6623;52.120;8.660;2023-10-09T05:10:20;1.77;;;1.20;;
13114;SDS011;6623;52.120;8.660;2023-10-09T05:12:50;1.27;;;1.10;;
13114;SDS011;6623;52.120;8.660;2023-10-09T05:15:24;1.80;;;1.30;;
13114;SDS011;6623;52.120;8.660;2023-10-09T05:17:54;1.30;;;1.20;;
13114;SDS011;6623;52.120;8.660;2023-10-09T05:20:22;1.73;;;1.20;;
13114;SDS011;6623;52.120;8.660;2023-10-09T05:22:48;1.67;;;1.30;;
13114;SDS011;6623;52.120;8.660;2023-10-09T05:25:27;1.30;;;1.20;;
13114;SDS011;6623;52.120;8.660;2023-10-09T05:28:15;1.37;;;1.27;;
13114;SDS011;6623;52.120;8.660;2023-10-09T05:30:51;1.50;;;1.30;;
13114;SDS011;6623;52.120;8.660;2023-10-09T05:33:28;1.37;;;1.23;;
13114;SDS011;6623;52.120;8.660;2023-10-09T05:35:54;1.30;;;1.20;;
13114;SDS011;6623;52.120;8.660;2023-10-09T05:38:38;1.87;;;1.23;;
13114;SDS011;6623;52.120;8.660;2023-10-09T05:41:11;1.57;;;1.20;;
13114;SDS011;6623;52.120;8.660;2023-10-09T05:43:55;1.77;;;1.10;;
13114;SDS011;6623;52.120;8.660;2023-10-09T05:46:39;1.30;;;1.20;;
13114;SDS011;6623;52.120;8.660;2023-10-09T05:49:25;1.40;;;1.30;;
13114;SDS011;6623;52.120;8.660;2023-10-09T05:52:10;1.57;;;1.20;;
13114;SDS011;6623;52.120;8.660;2023-10-09T05:54:57;1.60;;;1.30;;
13114;SDS011;6623;52.120;8.660;2023-10-09T05:57:40;1.77;;;1.33;;
13114;SDS011;6623;52.120;8.660;2023-10-09T06:00:25;1.50;;;1.10;;
13114;SDS011;6623;52.120;8.660;2023-10-09T06:03:10;1.70;;;1.30;;
13114;SDS011;6623;52.120;8.660;2023-10-09T06:05:49;2.17;;;1.47;;
13114;SDS011;6623;52.120;8.660;2023-10-09T06:08:21;2.03;;;1.30;;
13114;SDS011;6623;52.120;8.660;2023-10-09T06:11:23;1.80;;;1.30;;
13114;SDS011;6623;52.120;8.660;2023-10-09T06:13:59;1.80;;;1.40;;
13114;SDS011;6623;52.120;8.660;2023-10-09T06:16:37;1.87;;;1.20;;
13114;SDS011;6623;52.120;8.660;2023-10-09T06:19:04;2.30;;;1.47;;
13114;SDS011;6623;52.120;8.660;2023-10-09T06:21:36;1.63;;;1.33;;
13114;SDS011;6623;52.120;8.660;2023-10-09T06:24:07;1.20;;;1.10;;
13114;SDS011;6623;52.120;8.660;2023-10-09T06:26:35;1.73;;;1.27;;
13114;SDS011;6623;52.120;8.660;2023-10-09T06:29:00;1.50;;;1.40;;
13114;SDS011;6623;52.120;8.660;2023-10-09T06:31:42;1.60;;;1.20;;
13114;SDS011;6623;52.120;8.660;2023-10-09T06:34:24;1.50;;;1.40;;
13114;SDS011;6623;52.120;8.660;2023-10-09T06:37:00;1.93;;;1.47;;
13114;SDS011;6623;52.120;8.660;2023-10-09T06:39:45;1.73;;;1.20;;
13114;SDS011;6623;52.120;8.660;2023-10-09T06:42:36;2.23;;;1.50;;
13114;SDS011;6623;52.120;8.660;2023-10-09T06:45:06;1.60;;;1.40;;
13114;SDS011;6623;52.120;8.660;2023-10-09T06:47:49;1.43;;;1.30;;
13114;SDS011;6623;52.120;8.660;2023-10-09T06:50:22;1.40;;;1.30;;
13114;SDS011;6623;52.120;8.660;2023-10-09T06:52:51;1.70;;;1.40;;
13114;SDS011;6623;52.120;8.660;2023-10-09T06:55:22;1.50;;;1.40;;
13114;SDS011;6623;52.120;8.660;2023-10-09T06:58:02;1.40;;;1.30;;
13114;SDS011;6623;52.120;8.660;2023-10-09T07:00:41;1.70;;;1.47;;
13114;SDS011;6623;52.120;8.660;2023-10-09T07:03:39;2.10;;;1.50;;
13114;SDS011;6623;52.120;8.660;2023-10-09T07:06:25;1.50;;;1.40;;
13114;SDS011;6623;52.120;8.660;2023-10-09T07:08:51;1.90;;;1.50;;
13114;SDS011;6623;52.120;8.660;2023-10-09T07:11:31;1.50;;;1.40;;
13114;SDS011;6623;52.120;8.660;2023-10-09T07:14:06;1.40;;;1.30;;
13114;SDS011;6623;52.120;8.660;2023-10-09T07:16:55;1.43;;;1.33;;
13114;SDS011;6623;52.120;8.660;2023-10-09T07:19:53;1.97;;;1.40;;
13114;SDS011;6623;52.120;8.660;2023-10-09T07:22:19;1.63;;;1.23;;
13114;SDS011;6623;52.120;8.660;2023-10-09T07:24:48;2.17;;;1.60;;
13114;SDS011;6623;52.120;8.660;2023-10-09T07:27:17;1.37;;;1.20;;
13114;SDS011;6623;52.120;8.660;2023-10-09T07:30:12;1.73;;;1.40;;
13114;SDS011;6623;52.120;8.660;2023-10-09T07:32:57;1.90;;;1.40;;
13114;SDS011;6623;52.120;8.660;2023-10-09T07:35:35;1.80;;;1.37;;
13114;SDS011;6623;52.120;8.660;2023-10-09T07:38:25;1.67;;;1.47;;
13114;SDS011;6623;52.120;8.660;2023-10-09T07:40:55;1.87;;;1.43;;
13114;SDS011;6623;52.120;8.660;2023-10-09T07:43:22;1.53;;;1.40;;
13114;SDS011;6623;52.120;8.660;2023-10-09T07:45:56;1.50;;;1.40;;
13114;SDS011;6623;52.120;8.660;2023-10-09T07:48:22;1.40;;;1.23;;
13114;SDS011;6623;52.120;8.660;2023-10-09T07:50:50;1.70;;;1.40;;
13114;SDS011;6623;52.120;8.660;2023-10-09T07:53:22;1.83;;;1.50;;
13114;SDS011;6623;52.120;8.660;2023-10-09T07:55:54;1.57;;;1.47;;
13114;SDS011;6623;52.120;8.660;2023-10-09T07:58:22;1.70;;;1.27;;
13114;SDS011;6623;52.120;8.660;2023-10-09T08:00:54;1.57;;;1.30;;
13114;SDS011;6623;52.120;8.660;2023-10-09T08:03:26;2.97;;;1.60;;
13114;SDS011;6623;52.120;8.660;2023-10-09T08:05:57;1.93;;;1.50;;
13114;SDS011;6623;52.120;8.660;2023-10-09T08:08:43;1.50;;;1.30;;
13114;SDS011;6623;52.120;8.660;2023-10-09T08:11:31;1.60;;;1.50;;
13114;SDS011;6623;52.120;8.660;2023-10-09T08:14:25;1.50;;;1.27;;
13114;SDS011;6623;52.120;8.660;2023-10-09T08:16:59;1.50;;;1.30;;
13114;SDS011;6623;52.120;8.660;2023-10-09T08:19:47;1.70;;;1.43;;
13114;SDS011;6623;52.120;8.660;2023-10-09T08:22:36;2.17;;;1.53;;
13114;SDS011;6623;52.120;8.660;2023-10-09T08:25:17;1.90;;;1.50;;
13114;SDS011;6623;52.120;8.660;2023-10-09T08:27:57;2.07;;;1.30;;
13114;SDS011;6623;52.120;8.660;2023-10-09T08:30:44;1.73;;;1.40;;
13114;SDS011;6623;52.120;8.660;2023-10-09T08:33:28;1.80;;;1.40;;
13114;SDS011;6623;52.120;8.660;2023-10-09T08:36:06;1.50;;;1.33;;
13114;SDS011;6623;52.120;8.660;2023-10-09T08:38:33;1.80;;;1.40;;
13114;SDS011;6623;52.120;8.660;2023-10-09T08:41:11;1.63;;;1.53;;
13114;SDS011;6623;52.120;8.660;2023-10-09T08:43:51;1.70;;;1.33;;
13114;SDS011;6623;52.120;8.660;2023-10-09T08:46:18;1.57;;;1.43;;
13114;SDS011;6623;52.120;8.660;2023-10-09T08:48:45;1.20;;;1.10;;
13114;SDS011;6623;52.120;8.660;2023-10-09T08:51:12;1.43;;;1.33;;
13114;SDS011;6623;52.120;8.660;2023-10-09T08:53:39;1.67;;;1.43;;
13114;SDS011;6623;52.120;8.660;2023-10-09T08:56:08;2.30;;;1.60;;
13114;SDS011;6623;52.120;8.660;2023-10-09T08:58:35;1.43;;;1.33;;
13114;SDS011;6623;52.120;8.660;2023-10-09T09:01:05;1.60;;;1.40;;
13114;SDS011;6623;52.120;8.660;2023-10-09T09:03:41;1.80;;;1.50;;
13114;SDS011;6623;52.120;8.660;2023-10-09T09:06:10;1.40;;;1.27;;
13114;SDS011;6623;52.120;8.660;2023-10-09T09:08:36;1.70;;;1.60;;
13114;SDS011;6623;52.120;8.660;2023-10-09T09:11:03;1.37;;;1.20;;
13114;SDS011;6623;52.120;8.660;2023-10-09T09:14:01;1.57;;;1.33;;
13114;SDS011;6623;52.120;8.660;2023-10-09T09:16:29;1.70;;;1.43;;
13114;SDS011;6623;52.120;8.660;2023-10-09T09:18:56;1.63;;;1.40;;
13114;SDS011;6623;52.120;8.660;2023-10-09T09:21:42;1.63;;;1.30;;
13114;SDS011;6623;52.120;8.660;2023-10-09T09:24:13;1.67;;;1.30;;
13114;SDS011;6623;52.120;8.660;2023-10-09T09:26:48;1.57;;;1.20;;
13114;SDS011;6623;52.120;8.660;2023-10-09T09:29:24;1.30;;;1.20;;
13114;SDS011;6623;52.120;8.660;2023-10-09T09:32:03;1.50;;;1.30;;
13114;SDS011;6623;52.120;8.660;2023-10-09T09:34:48;1.40;;;1.30;;
13114;SDS011;6623;52.120;8.660;2023-10-09T09:37:26;1.33;;;1.10;;
13114;SDS011;6623;52.120;8.660;2023-10-09T09:39:59;1.60;;;1.30;;
13114;SDS011;6623;52.120;8.660;2023-10-09T09:42:36;1.90;;;1.50;;
13114;SDS011;6623;52.120;8.660;2023-10-09T09:45:03;2.30;;;1.63;;
13114;SDS011;6623;52.120;8.660;2023-10-09T09:47:30;1.37;;;1.27;;
13114;SDS011;6623;52.120;8.660;2023-10-09T09:50:00;1.67;;;1.37;;
13114;SDS011;6623;52.120;8.660;2023-10-09T09:52:37;1.40;;;1.23;;
13114;SDS011;6623;52.120;8.660;2023-10-09T09:55:10;1.33;;;1.20;;
13114;SDS011;6623;52.120;8.660;2023-10-09T09:57:47;1.53;;;1.40;;
13114;SDS011;6623;52.120;8.660;2023-10-09T10:00:18;1.80;;;1.43;;
13114;SDS011;6623;52.120;8.660;2023-10-09T10:03:14;1.50;;;1.30;;
13114;SDS011;6623;52.120;8.660;2023-10-09T10:05:44;1.57;;;1.30;;
13114;SDS011;6623;52.120;8.660;2023-10-09T10:08:17;1.70;;;1.30;;
13114;SDS011;6623;52.120;8.660;2023-10-09T10:10:45;1.40;;;1.23;;
13114;SDS011;6623;52.120;8.660;2023-10-09T10:19:04;1.27;;;1.17;;
13114;SDS011;6623;52.120;8.660;2023-10-09T10:21:46;1.40;;;1.03;;
13114;SDS011;6623;52.120;8.660;2023-10-09T10:24:40;2.00;;;1.43;;
13114;SDS011;6623;52.120;8.660;2023-10-09T10:27:19;1.50;;;1.40;;
13114;SDS011;6623;52.120;8.660;2023-10-09T10:35:20;1.27;;;1.17;;
13114;SDS011;6623;52.120;8.660;2023-10-09T10:40:49;2.00;;;1.53;;
13114;SDS011;6623;52.120;8.660;2023-10-09T10:43:26;1.77;;;1.43;;
13114;SDS011;6623;52.120;8.660;2023-10-09T10:46:05;1.77;;;1.53;;
13114;SDS011;6623;52.120;8.660;2023-10-09T10:48:39;1.70;;;1.30;;
13114;SDS011;6623;52.120;8.660;2023-10-09T10:51:05;1.40;;;1.30;;
13114;SDS011;6623;52.120;8.660;2023-10-09T10:53:30;1.50;;;1.40;;
13114;SDS011;6623;52.120;8.660;2023-10-09T10:56:14;1.53;;;1.40;;
13114;SDS011;6623;52.120;8.660;2023-10-09T10:58:40;1.43;;;1.30;;
13114;SDS011;6623;52.120;8.660;2023-10-09T11:01:18;1.40;;;1.30;;
13114;SDS011;6623;52.120;8.660;2023-10-09T11:03:48;1.43;;;1.33;;
13114;SDS011;6623;52.120;8.660;2023-10-09T11:06:25;1.90;;;1.20;;
13114;SDS011;6623;52.120;8.660;2023-10-09T11:09:00;1.87;;;1.40;;
13114;SDS011;6623;52.120;8.660;2023-10-09T11:11:33;1.47;;;1.30;;
13114;SDS011;6623;52.120;8.660;2023-10-09T11:14:09;1.40;;;1.30;;
13114;SDS011;6623;52.120;8.660;2023-10-09T11:16:39;2.23;;;1.40;;
13114;SDS011;6623;52.120;8.660;2023-10-09T11:19:12;1.97;;;1.60;;
13114;SDS011;6623;52.120;8.660;2023-10-09T11:21:51;1.50;;;1.30;;
13114;SDS011;6623;52.120;8.660;2023-10-09T11:24:25;1.30;;;1.20;;
13114;SDS011;6623;52.120;8.660;2023-10-09T11:26:52;1.70;;;1.40;;
13114;SDS011;6623;52.120;8.660;2023-10-09T11:29:20;1.27;;;1.17;;
13114;SDS011;6623;52.120;8.660;2023-10-09T11:32:06;1.73;;;1.30;;
13114;SDS011;6623;52.120;8.660;2023-10-09T11:34:43;1.33;;;1.20;;
13114;SDS011;6623;52.120;8.660;2023-10-09T11:37:19;1.57;;;1.23;;
13114;SDS011;6623;52.120;8.660;2023-10-09T11:39:55;1.50;;;1.40;;
13114;SDS011;6623;52.120;8.660;2023-10-09T11:42:22;1.57;;;1.30;;
13114;SDS011;6623;52.120;8.660;2023-10-09T11:45:05;1.50;;;1.40;;
13114;SDS011;6623;52.120;8.660;2023-10-09T11:47:53;1.57;;;1.30;;
13114;SDS011;6623;52.120;8.660;2023-10-09T11:53:17;1.60;;;1.20;;
13114;SDS011;6623;52.120;8.660;2023-10-09T11:55:49;1.20;;;1.10;;
13114;SDS011;6623;52.120;8.660;2023-10-09T11:58:17;1.77;;;1.20;;
13114;SDS011;6623;52.120;8.660;2023-10-09T12:00:55;1.77;;;1.40;;
13114;SDS011;6623;52.120;8.660;2023-10-09T12:03:27;2.00;;;1.67;;
13114;SDS011;6623;52.120;8.660;2023-10-09T12:05:57;1.73;;;1.37;;
13114;SDS011;6623;52.120;8.660;2023-10-09T12:08:29;1.23;;;1.13;;
13114;SDS011;6623;52.120;8.660;2023-10-09T12:10:55;1.37;;;1.27;;
13114;SDS011;6623;52.120;8.660;2023-10-09T12:13:21;1.63;;;1.40;;
13114;SDS011;6623;52.120;8.660;2023-10-09T12:15:48;1.87;;;1.50;;
13114;SDS011;6623;52.120;8.660;2023-10-09T12:18:21;1.50;;;1.40;;
13114;SDS011;6623;52.120;8.660;2023-10-09T12:20:48;1.73;;;1.30;;
13114;SDS011;6623;52.120;8.660;2023-10-09T12:23:20;1.90;;;1.37;;
13114;SDS011;6623;52.120;8.660;2023-10-09T12:25:50;1.97;;;1.50;;
13114;SDS011;6623;52.120;8.660;2023-10-09T12:28:19;2.73;;;1.40;;
13114;SDS011;6623;52.120;8.660;2023-10-09T12:30:45;2.00;;;1.57;;
13114;SDS011;6623;52.120;8.660;2023-10-09T12:33:15;1.60;;;1.40;;
13114;SDS011;6623;52.120;8.660;2023-10-09T12:35:41;1.67;;;1.30;;
13114;SDS011;6623;52.120;8.660;2023-10-09T12:38:10;2.80;;;1.40;;
13114;SDS011;6623;52.120;8.660;2023-10-09T12:40:37;2.17;;;1.40;;
13114;SDS011;6623;52.120;8.660;2023-10-09T12:43:06;3.13;;;1.50;;
13114;SDS011;6623;52.120;8.660;2023-10-09T12:45:40;1.97;;;1.23;;
13114;SDS011;6623;52.120;8.660;2023-10-09T12:48:06;2.17;;;1.50;;
13114;SDS011;6623;52.120;8.660;2023-10-09T12:50:34;1.70;;;1.47;;
13114;SDS011;6623;52.120;8.660;2023-10-09T12:53:06;2.43;;;1.40;;
13114;SDS011;6623;52.120;8.660;2023-10-09T12:55:42;2.23;;;1.30;;
13114;SDS011;6623;52.120;8.660;2023-10-09T12:58:08;1.80;;;1.40;;
13114;SDS011;6623;52.120;8.660;2023-10-09T13:00:37;1.40;;;1.30;;
13114;SDS011;6623;52.120;8.660;2023-10-09T13:03:08;1.33;;;1.23;;
13114;SDS011;6623;52.120;8.660;2023-10-09T13:05:42;1.70;;;1.30;;
13114;SDS011;6623;52.120;8.660;2023-10-09T13:08:25;1.47;;;1.27;;
13114;SDS011;6623;52.120;8.660;2023-10-09T13:11:02;1.57;;;1.27;;
13114;SDS011;6623;52.120;8.660;2023-10-09T13:13:50;2.20;;;1.60;;
13114;SDS011;6623;52.120;8.660;2023-10-09T13:16:16;1.50;;;1.33;;
13114;SDS011;6623;52.120;8.660;2023-10-09T13:18:52;2.33;;;1.10;;
13114;SDS011;6623;52.120;8.660;2023-10-09T13:21:25;1.73;;;1.43;;
13114;SDS011;6623;52.120;8.660;2023-10-09T13:23:52;1.50;;;1.20;;
13114;SDS011;6623;52.120;8.660;2023-10-09T13:26:22;1.67;;;1.40;;
13114;SDS011;6623;52.120;8.660;2023-10-09T13:28:55;1.70;;;1.47;;
13114;SDS011;6623;52.120;8.660;2023-10-09T13:31:21;1.50;;;1.30;;
13114;SDS011;6623;52.120;8.660;2023-10-09T13:33:50;1.50;;;1.40;;
13114;SDS011;6623;52.120;8.660;2023-10-09T13:36:20;1.40;;;1.20;;
13114;SDS011;6623;52.120;8.660;2023-10-09T13:38:56;1.60;;;1.30;;
13114;SDS011;6623;52.120;8.660;2023-10-09T13:41:22;1.30;;;1.20;;
13114;SDS011;6623;52.120;8.660;2023-10-09T13:43:53;1.97;;;1.30;;
13114;SDS011;6623;52.120;8.660;2023-10-09T13:46:19;1.53;;;1.40;;
13114;SDS011;6623;52.120;8.660;2023-10-09T13:48:44;2.13;;;1.60;;
13114;SDS011;6623;52.120;8.660;2023-10-09T13:51:11;1.83;;;1.40;;
13114;SDS011;6623;52.120;8.660;2023-10-09T13:53:47;1.90;;;1.50;;
13114;SDS011;6623;52.120;8.660;2023-10-09T13:56:17;1.77;;;1.40;;
13114;SDS011;6623;52.120;8.660;2023-10-09T13:58:47;1.43;;;1.33;;
13114;SDS011;6623;52.120;8.660;2023-10-09T14:01:16;2.23;;;1.50;;
13114;SDS011;6623;52.120;8.660;2023-10-09T14:03:56;1.60;;;1.50;;
13114;SDS011;6623;52.120;8.660;2023-10-09T14:06:23;1.50;;;1.30;;
13114;SDS011;6623;52.120;8.660;2023-10-09T14:08:59;1.70;;;1.50;;
13114;SDS011;6623;52.120;8.660;2023-10-09T14:11:29;1.53;;;1.30;;
13114;SDS011;6623;52.120;8.660;2023-10-09T14:14:02;1.53;;;1.30;;
13114;SDS011;6623;52.120;8.660;2023-10-09T14:16:29;1.47;;;1.30;;
13114;SDS011;6623;52.120;8.660;2023-10-09T14:18:57;1.80;;;1.40;;
13114;SDS011;6623;52.120;8.660;2023-10-09T14:21:26;1.60;;;1.30;;
13114;SDS011;6623;52.120;8.660;2023-10-09T14:23:55;1.50;;;1.37;;
13114;SDS011;6623;52.120;8.660;2023-10-09T14:26:25;1.87;;;1.40;;
13114;SDS011;6623;52.120;8.660;2023-10-09T14:28:52;1.83;;;1.40;;
13114;SDS011;6623;52.120;8.660;2023-10-09T14:31:18;1.83;;;1.43;;
13114;SDS011;6623;52.120;8.660;2023-10-09T14:33:51;1.40;;;1.30;;
13114;SDS011;6623;52.120;8.660;2023-10-09T14:36:18;1.70;;;1.30;;
13114;SDS011;6623;52.120;8.660;2023-10-09T14:38:44;1.50;;;1.40;;
13114;SDS011;6623;52.120;8.660;2023-10-09T14:41:12;1.57;;;1.33;;
13114;SDS011;6623;52.120;8.660;2023-10-09T14:43:38;1.70;;;1.33;;
13114;SDS011;6623;52.120;8.660;2023-10-09T14:46:04;2.73;;;1.47;;
13114;SDS011;6623;52.120;8.660;2023-10-09T14:48:36;1.43;;;1.30;;
13114;SDS011;6623;52.120;8.660;2023-10-09T14:51:03;1.27;;;1.17;;
13114;SDS011;6623;52.120;8.660;2023-10-09T14:53:34;1.93;;;1.40;;
13114;SDS011;6623;52.120;8.660;2023-10-09T14:56:00;1.60;;;1.30;;
13114;SDS011;6623;52.120;8.660;2023-10-09T14:58:27;1.70;;;1.60;;
13114;SDS011;6623;52.120;8.660;2023-10-09T15:00:54;1.97;;;1.47;;
13114;SDS011;6623;52.120;8.660;2023-10-09T15:03:20;1.53;;;1.30;;
13114;SDS011;6623;52.120;8.660;2023-10-09T15:05:47;1.50;;;1.40;;
13114;SDS011;6623;52.120;8.660;2023-10-09T15:08:12;1.50;;;1.30;;
13114;SDS011;6623;52.120;8.660;2023-10-09T15:10:45;1.40;;;1.30;;
13114;SDS011;6623;52.120;8.660;2023-10-09T15:13:16;1.50;;;1.40;;
13114;SDS011;6623;52.120;8.660;2023-10-09T15:15:42;1.70;;;1.40;;
13114;SDS011;6623;52.120;8.660;2023-10-09T15:18:09;1.97;;;1.40;;
13114;SDS011;6623;52.120;8.660;2023-10-09T15:20:37;1.60;;;1.37;;
13114;SDS011;6623;52.120;8.660;2023-10-09T15:23:04;2.07;;;1.60;;
13114;SDS011;6623;52.120;8.660;2023-10-09T15:25:30;1.60;;;1.50;;
13114;SDS011;6623;52.120;8.660;2023-10-09T15:27:56;1.70;;;1.40;;
13114;SDS011;6623;52.120;8.660;2023-10-09T15:30:22;1.40;;;1.10;;
13114;SDS011;6623;52.120;8.660;2023-10-09T15:32:48;1.40;;;1.30;;
13114;SDS011;6623;52.120;8.660;2023-10-09T15:35:16;1.77;;;1.43;;
13114;SDS011;6623;52.120;8.660;2023-10-09T15:37:43;1.50;;;1.23;;
13114;SDS011;6623;52.120;8.660;2023-10-09T15:40:11;1.53;;;1.37;;
13114;SDS011;6623;52.120;8.660;2023-10-09T15:42:40;2.27;;;1.50;;
13114;SDS011;6623;52.120;8.660;2023-10-09T15:45:07;1.50;;;1.30;;
13114;SDS011;6623;52.120;8.660;2023-10-09T15:47:33;1.43;;;1.30;;
13114;SDS011;6623;52.120;8.660;2023-10-09T15:50:01;1.40;;;1.30;;
13114;SDS011;6623;52.120;8.660;2023-10-09T15:52:28;2.30;;;1.43;;
13114;SDS011;6623;52.120;8.660;2023-10-09T15:54:54;1.60;;;1.50;;